Awajishima — JD4140 — position and weather

sailwx.info

Track history (hours):
 
Tides and Currents Weather Stations Pressure Air Temp Water Temp Dewpoint Dewpoint Depression Visibility Wind Speed Wind Dir Waves Ship Positions

Awajishima

Last reported at 2018-Jan-20 11:21 UTC. Time now 2018-Jan-21 20:27 UTC.
Position N 34°27' E 130°54'.

Length 105 m; draft 6.6 m.

Type: Tanker. MMSI: 431009313.

Date/timePositionNaut miles runAvg speedWind from/ knotsBaromVisibWave heightAir tempDewpointWater temp
2018-Jan-20 11:21N 34°27' E 130°54'513.2
2018-Jan-20 11:00N 34°24' E 130°50'713.1
2018-Jan-20 10:28N 34°17' E 130°49'613.6
2018-Jan-20 10:00N 34°11' E 130°49'613.2
2018-Jan-20 09:30N 34°04' E 130°51'613.0
2018-Jan-20 09:00N 33°58' E 130°53'4 8.3
2018-Jan-20 08:31N 33°55' E 130°56'5 9.4
2018-Jan-20 08:00N 33°59' E 130°59'611.6
2018-Jan-20 07:31N 33°56' E 131°05'612.4
2018-Jan-20 07:01N 33°53' E 131°11'612.6
2018-Jan-20 06:30N 33°50' E 131°18'612.9
2018-Jan-20 06:00N 33°48' E 131°26'612.8
2018-Jan-20 05:30N 33°45' E 131°32'612.3
2018-Jan-20 05:00N 33°42' E 131°39'611.6
2018-Jan-20 04:30N 33°38' E 131°44'611.6
2018-Jan-20 04:00N 33°33' E 131°47'712.6
2018-Jan-20 03:27N 33°26' E 131°47'613.5
2018-Jan-20 03:00N 33°21' E 131°43'5 1.1
2018-Jan-19 22:38N 33°17' E 131°41'1 5.3
2018-Jan-19 22:28N 33°18' E 131°41'510.0
2018-Jan-19 22:00N 33°22' E 131°43'0 0.2
2018-Jan-19 21:30N 33°22' E 131°43'0 0.0
2018-Jan-19 21:00N 33°22' E 131°43'0 0.0
2018-Jan-19 20:24N 33°22' E 131°43'0 0.0
2018-Jan-19 20:00N 33°22' E 131°43'0 0.0
2018-Jan-19 19:30N 33°22' E 131°43'0 0.0
2018-Jan-19 18:57N 33°22' E 131°43'0 0.0
2018-Jan-19 18:18N 33°22' E 131°43'0 0.0
2018-Jan-19 18:00N 33°22' E 131°43'0 0.0
2018-Jan-19 17:30N 33°22' E 131°43'0 0.0
2018-Jan-19 17:00N 33°22' E 131°43'0 0.0
2018-Jan-19 16:30N 33°22' E 131°43'0 0.0
2018-Jan-19 15:54N 33°22' E 131°43'0 0.0
2018-Jan-19 15:24N 33°22' E 131°43'0 0.0
2018-Jan-19 14:51N 33°22' E 131°43'0 0.4
2018-Jan-19 14:30N 33°22' E 131°43'612.7
2018-Jan-19 14:00N 33°25' E 131°49'714.1
2018-Jan-19 13:30N 33°30' E 131°56'713.8
2018-Jan-19 13:00N 33°34' E 132°03'813.7
2018-Jan-19 12:25N 33°38' E 132°11'613.5
2018-Jan-19 12:00N 33°41' E 132°17'913.6
2018-Jan-19 11:21N 33°46' E 132°25'513.7
2018-Jan-19 10:58N 33°49' E 132°30'713.8
2018-Jan-19 10:29N 33°54' E 132°36'714.1
2018-Jan-19 10:01N 33°58' E 132°43'813.8
2018-Jan-19 09:26N 34°03' E 132°50'0 0.0
2018-Jan-18 21:01N 34°03' E 132°50'0 9.2
2018-Jan-18 21:00N 34°03' E 132°50'713.8
2018-Jan-18 20:30N 33°58' E 132°44'713.4
2018-Jan-18 20:00N 33°54' E 132°38'714.0
2018-Jan-18 19:31N 33°49' E 132°32'714.1
2018-Jan-18 19:00N 33°46' E 132°24'713.9
2018-Jan-18 18:30N 33°43' E 132°16'814.0
2018-Jan-18 17:56N 33°41' E 132°07'614.5
2018-Jan-18 17:30N 33°42' E 131°60'815.2
2018-Jan-18 17:00N 33°44' E 131°51'815.6
2018-Jan-18 16:30N 33°46' E 131°42'816.0
2018-Jan-18 16:00N 33°47' E 131°32'815.6
2018-Jan-18 15:30N 33°48' E 131°23'815.5
2018-Jan-18 15:00N 33°51' E 131°14'715.2
2018-Jan-18 14:30N 33°55' E 131°06'713.4
2018-Jan-18 14:00N 33°58' E 130°59'5 9.5
2018-Jan-18 13:30N 33°55' E 130°56'4 8.7
2018-Jan-18 13:01N 33°58' E 130°53'714.8
2018-Jan-18 12:30N 34°05' E 130°50'815.2
2018-Jan-18 12:01N 34°13' E 130°49'815.1
2018-Jan-18 11:30N 34°20' E 130°48'714.6
2018-Jan-18 11:00N 34°27' E 130°53'  
2018-Jan-11 04:54N 40°50' E 139°58'510.5
2018-Jan-11 04:28N 40°54' E 140°01'510.5
2018-Jan-11 03:59N 40°59' E 140°05'2210.1
2018-Jan-11 01:46N 41°19' E 140°17'3 8.6
2018-Jan-11 01:28N 41°21' E 140°19'510.5
2018-Jan-11 00:58N 41°25' E 140°24'511.4
2018-Jan-11 00:30N 41°29' E 140°28'611.9
2018-Jan-11 00:00N 41°34' E 140°32'613.0
2018-Jan-10 23:30N 41°40' E 140°36'611.9
2018-Jan-10 22:59N 41°45' E 140°40'0 0.5
2018-Jan-10 22:30N 41°46' E 140°40'0 0.1
2018-Jan-10 22:01N 41°46' E 140°40'0 0.0
2018-Jan-10 21:30N 41°46' E 140°40'0 0.1
2018-Jan-10 21:00N 41°46' E 140°40'0 0.1
2018-Jan-10 20:30N 41°46' E 140°40'0 0.0
2018-Jan-10 20:00N 41°46' E 140°40'0 0.0
2018-Jan-10 19:30N 41°46' E 140°40'0 0.1
2018-Jan-10 18:58N 41°46' E 140°40'0 0.0
2018-Jan-10 18:29N 41°46' E 140°40'0 0.0
2018-Jan-10 17:59N 41°46' E 140°40'0 0.0
2018-Jan-10 17:30N 41°46' E 140°40'0 0.0
2018-Jan-10 17:00N 41°46' E 140°40'0 0.1
2018-Jan-10 16:30N 41°46' E 140°40'0 0.0
2018-Jan-10 16:00N 41°46' E 140°40'0 0.1
2018-Jan-10 15:30N 41°46' E 140°40'0 0.0
2018-Jan-10 15:00N 41°46' E 140°40'0 0.0
2018-Jan-10 14:30N 41°46' E 140°40'0 0.1
2018-Jan-10 14:00N 41°46' E 140°40'0 0.1
2018-Jan-10 13:30N 41°46' E 140°40'0 0.0
2018-Jan-10 13:00N 41°46' E 140°40'0 0.1
2018-Jan-10 12:30N 41°46' E 140°40'0 0.0
2018-Jan-10 11:59N 41°46' E 140°40'0 0.1
2018-Jan-10 11:30N 41°46' E 140°40'  
Track history (hours):
 
Tides and Currents Weather Stations Pressure Air Temp Water Temp Dewpoint Dewpoint Depression Visibility Wind Speed Wind Dir Waves Ship Positions

Awajishima

Last reported at 2018-Jan-20 11:21 UTC. Time now 2018-Jan-21 20:27 UTC.
Position N 34°27' E 130°54'.

Length 105 m; draft 6.6 m.

Type: Tanker. MMSI: 431009313.

Date/timePositionNaut miles runAvg speedWind from/ knotsBaromVisibWave heightAir tempDewpointWater temp
2018-Jan-20 11:21N 34°27' E 130°54'513.2
2018-Jan-20 11:00N 34°24' E 130°50'713.1
2018-Jan-20 10:28N 34°17' E 130°49'613.6
2018-Jan-20 10:00N 34°11' E 130°49'613.2
2018-Jan-20 09:30N 34°04' E 130°51'613.0
2018-Jan-20 09:00N 33°58' E 130°53'4 8.3
2018-Jan-20 08:31N 33°55' E 130°56'5 9.4
2018-Jan-20 08:00N 33°59' E 130°59'611.6
2018-Jan-20 07:31N 33°56' E 131°05'612.4
2018-Jan-20 07:01N 33°53' E 131°11'612.6
2018-Jan-20 06:30N 33°50' E 131°18'612.9
2018-Jan-20 06:00N 33°48' E 131°26'612.8
2018-Jan-20 05:30N 33°45' E 131°32'612.3
2018-Jan-20 05:00N 33°42' E 131°39'611.6
2018-Jan-20 04:30N 33°38' E 131°44'611.6
2018-Jan-20 04:00N 33°33' E 131°47'712.6
2018-Jan-20 03:27N 33°26' E 131°47'613.5
2018-Jan-20 03:00N 33°21' E 131°43'5 1.1
2018-Jan-19 22:38N 33°17' E 131°41'1 5.3
2018-Jan-19 22:28N 33°18' E 131°41'510.0
2018-Jan-19 22:00N 33°22' E 131°43'0 0.2
2018-Jan-19 21:30N 33°22' E 131°43'0 0.0
2018-Jan-19 21:00N 33°22' E 131°43'0 0.0
2018-Jan-19 20:24N 33°22' E 131°43'0 0.0
2018-Jan-19 20:00N 33°22' E 131°43'0 0.0
2018-Jan-19 19:30N 33°22' E 131°43'0 0.0
2018-Jan-19 18:57N 33°22' E 131°43'0 0.0
2018-Jan-19 18:18N 33°22' E 131°43'0 0.0
2018-Jan-19 18:00N 33°22' E 131°43'0 0.0
2018-Jan-19 17:30N 33°22' E 131°43'0 0.0
2018-Jan-19 17:00N 33°22' E 131°43'0 0.0
2018-Jan-19 16:30N 33°22' E 131°43'0 0.0
2018-Jan-19 15:54N 33°22' E 131°43'0 0.0
2018-Jan-19 15:24N 33°22' E 131°43'0 0.0
2018-Jan-19 14:51N 33°22' E 131°43'0 0.4
2018-Jan-19 14:30N 33°22' E 131°43'612.7
2018-Jan-19 14:00N 33°25' E 131°49'714.1
2018-Jan-19 13:30N 33°30' E 131°56'713.8
2018-Jan-19 13:00N 33°34' E 132°03'813.7
2018-Jan-19 12:25N 33°38' E 132°11'613.5
2018-Jan-19 12:00N 33°41' E 132°17'913.6
2018-Jan-19 11:21N 33°46' E 132°25'513.7
2018-Jan-19 10:58N 33°49' E 132°30'713.8
2018-Jan-19 10:29N 33°54' E 132°36'714.1
2018-Jan-19 10:01N 33°58' E 132°43'813.8
2018-Jan-19 09:26N 34°03' E 132°50'0 0.0
2018-Jan-18 21:01N 34°03' E 132°50'0 9.2
2018-Jan-18 21:00N 34°03' E 132°50'713.8
2018-Jan-18 20:30N 33°58' E 132°44'713.4
2018-Jan-18 20:00N 33°54' E 132°38'714.0
2018-Jan-18 19:31N 33°49' E 132°32'714.1
2018-Jan-18 19:00N 33°46' E 132°24'713.9
2018-Jan-18 18:30N 33°43' E 132°16'814.0
2018-Jan-18 17:56N 33°41' E 132°07'614.5
2018-Jan-18 17:30N 33°42' E 131°60'815.2
2018-Jan-18 17:00N 33°44' E 131°51'815.6
2018-Jan-18 16:30N 33°46' E 131°42'816.0
2018-Jan-18 16:00N 33°47' E 131°32'815.6
2018-Jan-18 15:30N 33°48' E 131°23'815.5
2018-Jan-18 15:00N 33°51' E 131°14'715.2
2018-Jan-18 14:30N 33°55' E 131°06'713.4
2018-Jan-18 14:00N 33°58' E 130°59'5 9.5
2018-Jan-18 13:30N 33°55' E 130°56'4 8.7
2018-Jan-18 13:01N 33°58' E 130°53'714.8
2018-Jan-18 12:30N 34°05' E 130°50'815.2
2018-Jan-18 12:01N 34°13' E 130°49'815.1
2018-Jan-18 11:30N 34°20' E 130°48'714.6
2018-Jan-18 11:00N 34°27' E 130°53'  
2018-Jan-11 04:54N 40°50' E 139°58'510.5
2018-Jan-11 04:28N 40°54' E 140°01'510.5
2018-Jan-11 03:59N 40°59' E 140°05'2210.1
2018-Jan-11 01:46N 41°19' E 140°17'3 8.6
2018-Jan-11 01:28N 41°21' E 140°19'510.5
2018-Jan-11 00:58N 41°25' E 140°24'511.4
2018-Jan-11 00:30N 41°29' E 140°28'611.9
2018-Jan-11 00:00N 41°34' E 140°32'613.0
2018-Jan-10 23:30N 41°40' E 140°36'611.9
2018-Jan-10 22:59N 41°45' E 140°40'0 0.5
2018-Jan-10 22:30N 41°46' E 140°40'0 0.1
2018-Jan-10 22:01N 41°46' E 140°40'0 0.0
2018-Jan-10 21:30N 41°46' E 140°40'0 0.1
2018-Jan-10 21:00N 41°46' E 140°40'0 0.1
2018-Jan-10 20:30N 41°46' E 140°40'0 0.0
2018-Jan-10 20:00N 41°46' E 140°40'0 0.0
2018-Jan-10 19:30N 41°46' E 140°40'0 0.1
2018-Jan-10 18:58N 41°46' E 140°40'0 0.0
2018-Jan-10 18:29N 41°46' E 140°40'0 0.0
2018-Jan-10 17:59N 41°46' E 140°40'0 0.0
2018-Jan-10 17:30N 41°46' E 140°40'0 0.0
2018-Jan-10 17:00N 41°46' E 140°40'0 0.1
2018-Jan-10 16:30N 41°46' E 140°40'0 0.0
2018-Jan-10 16:00N 41°46' E 140°40'0 0.1
2018-Jan-10 15:30N 41°46' E 140°40'0 0.0
2018-Jan-10 15:00N 41°46' E 140°40'0 0.0
2018-Jan-10 14:30N 41°46' E 140°40'0 0.1
2018-Jan-10 14:00N 41°46' E 140°40'0 0.1
2018-Jan-10 13:30N 41°46' E 140°40'0 0.0
2018-Jan-10 13:00N 41°46' E 140°40'0 0.1
2018-Jan-10 12:30N 41°46' E 140°40'0 0.0
2018-Jan-10 11:59N 41°46' E 140°40'0 0.1
2018-Jan-10 11:30N 41°46' E 140°40'  

Dump ship's entire track history